createdAt,value
2018-01-23T00:02:13.261Z,1.90
2018-01-23T00:04:41.526Z,1.80
2018-01-23T00:07:08.970Z,1.90
2018-01-23T00:09:36.426Z,1.90
2018-01-23T00:12:03.886Z,1.90
2018-01-23T00:14:31.378Z,1.90
2018-01-23T00:16:59.580Z,1.90
2018-01-23T00:19:27.055Z,1.90
2018-01-23T00:21:54.500Z,1.90
2018-01-23T00:24:21.971Z,1.90
2018-01-23T00:26:50.191Z,1.90
2018-01-23T00:29:17.671Z,1.90
2018-01-23T00:31:45.114Z,1.90
2018-01-23T00:34:12.562Z,1.90
2018-01-23T00:36:40.031Z,1.90
2018-01-23T00:39:07.511Z,1.90
2018-01-23T00:41:34.967Z,1.90
2018-01-23T00:44:02.433Z,1.90
2018-01-23T00:46:29.935Z,1.90
2018-01-23T00:48:57.344Z,1.90
2018-01-23T00:51:24.791Z,1.90
2018-01-23T00:53:52.259Z,1.90
2018-01-23T00:56:19.763Z,1.90
2018-01-23T00:58:47.973Z,1.80
2018-01-23T01:01:15.434Z,1.90
2018-01-23T01:03:42.904Z,1.90
2018-01-23T01:06:10.397Z,1.80
2018-01-23T01:08:37.830Z,1.90
2018-01-23T01:11:05.270Z,1.90
2018-01-23T01:13:32.758Z,1.90
2018-01-23T01:16:00.247Z,1.90
2018-01-23T01:18:28.455Z,1.90
2018-01-23T01:20:55.915Z,1.90
2018-01-23T01:23:23.403Z,1.90
2018-01-23T01:25:51.291Z,1.90
2018-01-23T01:28:19.514Z,1.90
2018-01-23T01:30:47.028Z,1.90
2018-01-23T01:41:47.510Z,1.90
2018-01-23T01:44:15.726Z,1.90
2018-01-23T01:46:43.283Z,1.90
2018-01-23T01:49:10.750Z,1.90
2018-01-23T01:51:38.210Z,1.90
2018-01-23T01:54:05.675Z,1.90
2018-01-23T01:56:33.122Z,1.90
2018-01-23T01:59:00.577Z,1.90
2018-01-23T02:01:28.023Z,1.90
2018-01-23T02:03:55.482Z,1.90
2018-01-23T02:06:22.958Z,1.90
2018-01-23T02:08:50.399Z,1.90
2018-01-23T02:11:17.861Z,1.90
2018-01-23T02:13:45.326Z,1.90
2018-01-23T02:16:12.791Z,2.00
2018-01-23T02:18:40.242Z,1.90
2018-01-23T02:21:07.705Z,1.90
2018-01-23T02:23:35.162Z,1.90
2018-01-23T02:26:02.602Z,2.00
2018-01-23T02:28:30.070Z,2.00
2018-01-23T02:30:57.538Z,2.00
2018-01-23T02:33:25.002Z,1.90
2018-01-23T02:35:52.462Z,2.00
2018-01-23T02:38:19.910Z,2.00
2018-01-23T02:40:47.367Z,1.90
2018-01-23T02:43:14.814Z,2.00
2018-01-23T02:45:42.273Z,1.90
2018-01-23T02:48:09.722Z,2.00
2018-01-23T02:50:37.183Z,2.00
2018-01-23T02:55:54.890Z,2.00
2018-01-23T02:58:22.367Z,2.00
2018-01-23T03:00:49.863Z,2.00
2018-01-23T03:03:17.342Z,2.00
2018-01-23T03:05:45.566Z,2.00
2018-01-23T03:08:13.062Z,2.00
2018-01-23T03:10:40.522Z,2.00
2018-01-23T03:13:08.009Z,2.00
2018-01-23T03:15:35.494Z,2.00
2018-01-23T03:18:02.982Z,2.00
2018-01-23T03:20:30.466Z,2.00
2018-01-23T03:22:57.994Z,2.00
2018-01-23T03:25:25.446Z,2.00
2018-01-23T03:27:52.940Z,2.00
2018-01-23T03:30:21.164Z,2.00
2018-01-23T03:32:48.668Z,2.00
2018-01-23T03:35:16.099Z,2.00
2018-01-23T03:37:43.569Z,2.00
2018-01-23T03:40:11.035Z,2.00
2018-01-23T03:42:39.250Z,2.00
2018-01-23T03:45:06.691Z,2.00
2018-01-23T03:47:34.171Z,2.10
2018-01-23T03:50:01.619Z,2.00
2018-01-23T03:52:29.082Z,2.10
2018-01-23T03:54:56.543Z,2.00
2018-01-23T03:57:24.026Z,2.00
2018-01-23T03:59:51.491Z,2.00
2018-01-23T04:02:18.942Z,2.10
2018-01-23T04:04:46.378Z,2.00
2018-01-23T04:07:13.845Z,2.10
2018-01-23T04:09:41.287Z,2.10
2018-01-23T04:12:08.754Z,2.00
2018-01-23T04:14:36.206Z,2.00
2018-01-23T04:17:04.415Z,2.10
2018-01-23T04:19:31.878Z,2.10
2018-01-23T04:21:59.319Z,2.10
2018-01-23T04:24:26.780Z,2.10
2018-01-23T04:26:54.222Z,2.10
2018-01-23T04:29:21.681Z,2.10
2018-01-23T04:31:49.142Z,2.10
2018-01-23T04:34:16.590Z,2.10
2018-01-23T04:36:44.038Z,2.10
2018-01-23T04:39:11.502Z,2.10
2018-01-23T04:41:38.966Z,2.10
2018-01-23T04:44:06.421Z,2.10
2018-01-23T04:46:33.873Z,2.10
2018-01-23T04:49:01.346Z,2.10
2018-01-23T04:51:28.791Z,2.10
2018-01-23T04:53:56.242Z,2.20
2018-01-23T04:56:23.708Z,2.20
2018-01-23T04:58:51.175Z,2.10
2018-01-23T05:01:18.634Z,2.10
2018-01-23T05:03:46.351Z,2.20
2018-01-23T05:06:13.805Z,2.20
2018-01-23T05:08:41.274Z,2.20
2018-01-23T05:11:08.726Z,2.20
2018-01-23T05:13:36.193Z,2.20
2018-01-23T05:16:03.656Z,2.20
2018-01-23T05:18:31.134Z,2.20
2018-01-23T05:20:58.582Z,2.20
2018-01-23T05:23:26.034Z,2.20
2018-01-23T05:25:53.489Z,2.20
2018-01-23T05:28:20.954Z,2.20
2018-01-23T05:30:48.406Z,2.20
2018-01-23T05:33:15.875Z,2.20
2018-01-23T05:35:43.334Z,2.20
2018-01-23T05:38:10.811Z,2.20
2018-01-23T05:40:39.038Z,2.20
2018-01-23T05:43:06.518Z,2.20
2018-01-23T05:45:33.984Z,2.20
2018-01-23T05:48:01.452Z,2.20
2018-01-23T05:50:29.693Z,2.20
2018-01-23T05:52:57.146Z,2.20
2018-01-23T05:55:24.590Z,2.20
2018-01-23T05:57:52.059Z,2.30
2018-01-23T06:00:19.503Z,2.30
2018-01-23T06:02:46.998Z,2.30
2018-01-23T06:05:14.438Z,2.30
2018-01-23T06:07:41.911Z,2.30
2018-01-23T06:10:09.379Z,2.30
2018-01-23T06:12:37.661Z,2.30
2018-01-23T06:15:05.164Z,2.30
2018-01-23T06:17:32.600Z,2.40
2018-01-23T06:20:00.049Z,2.40
2018-01-23T06:22:28.260Z,2.40
2018-01-23T06:24:55.726Z,2.40
2018-01-23T06:27:23.182Z,2.40
2018-01-23T06:29:50.650Z,2.40
2018-01-23T06:32:18.099Z,2.50
2018-01-23T06:34:45.566Z,2.50
2018-01-23T06:37:13.058Z,2.50
2018-01-23T06:39:40.515Z,2.50
2018-01-23T06:42:07.994Z,2.50
2018-01-23T06:44:35.430Z,2.50
2018-01-23T06:47:02.895Z,2.60
2018-01-23T06:49:30.355Z,2.50
2018-01-23T06:51:57.798Z,2.50
2018-01-23T06:54:25.307Z,2.60
2018-01-23T06:56:52.767Z,2.60
2018-01-23T06:59:20.231Z,2.60
2018-01-23T07:01:47.714Z,2.60
2018-01-23T07:04:15.176Z,2.60
2018-01-23T07:06:43.382Z,2.70
2018-01-23T07:09:10.892Z,2.60
2018-01-23T07:11:38.298Z,2.70
2018-01-23T07:14:05.798Z,2.70
2018-01-23T07:16:33.255Z,2.70
2018-01-23T07:19:00.710Z,2.70
2018-01-23T07:21:28.190Z,2.80
2018-01-23T07:23:56.401Z,2.80
2018-01-23T07:26:23.907Z,2.80
2018-01-23T07:28:51.294Z,2.80
2018-01-23T07:31:18.776Z,2.80
2018-01-23T07:33:46.227Z,2.80
2018-01-23T07:36:13.687Z,2.80
2018-01-23T07:38:41.366Z,2.90
2018-01-23T07:41:08.806Z,2.90
2018-01-23T07:43:36.274Z,2.90
2018-01-23T07:46:03.751Z,2.90
2018-01-23T07:48:31.212Z,2.90
2018-01-23T07:50:58.670Z,3.00
2018-01-23T07:53:26.134Z,3.00
2018-01-23T07:55:53.586Z,3.00
2018-01-23T08:00:54.844Z,3.00
2018-01-23T08:03:22.403Z,3.00
2018-01-23T08:05:49.856Z,3.10
2018-01-23T08:08:17.303Z,3.10
2018-01-23T08:10:44.779Z,3.10
2018-01-23T08:13:12.254Z,3.20
2018-01-23T08:15:39.708Z,3.20
2018-01-23T08:18:07.919Z,3.20
2018-01-23T08:20:35.399Z,3.20
2018-01-23T08:23:02.846Z,3.30
2018-01-23T08:25:30.296Z,3.30
2018-01-23T08:27:57.751Z,3.30
2018-01-23T08:30:25.219Z,3.40
2018-01-23T08:32:52.660Z,3.40
2018-01-23T08:35:20.098Z,3.50
2018-01-23T08:37:47.594Z,3.50
2018-01-23T08:40:15.032Z,3.60
2018-01-23T08:42:42.475Z,3.60
2018-01-23T08:45:09.944Z,3.70
2018-01-23T08:47:37.403Z,3.70
2018-01-23T08:50:04.859Z,3.80
2018-01-23T08:52:32.314Z,3.80
2018-01-23T08:54:59.774Z,3.80
2018-01-23T08:57:27.214Z,3.90
2018-01-23T08:59:54.763Z,3.90
2018-01-23T09:02:22.215Z,4.00
2018-01-23T09:04:50.422Z,4.10
2018-01-23T09:07:18.000Z,4.10
2018-01-23T09:09:45.445Z,4.20
2018-01-23T09:12:12.890Z,4.20
2018-01-23T09:14:40.361Z,4.30
2018-01-23T09:17:07.810Z,4.30
2018-01-23T09:19:35.270Z,4.40
2018-01-23T09:22:02.716Z,4.40
2018-01-23T09:24:30.195Z,4.50
2018-01-23T09:26:57.637Z,4.60
2018-01-23T09:29:25.094Z,4.60
2018-01-23T09:31:52.568Z,4.70
2018-01-23T09:34:20.016Z,4.70
2018-01-23T09:36:47.459Z,4.80
2018-01-23T09:39:14.930Z,4.80
2018-01-23T09:41:42.395Z,4.90
2018-01-23T09:44:09.867Z,4.90
2018-01-23T09:46:37.326Z,5.00
2018-01-23T09:49:04.880Z,5.00
2018-01-23T09:51:32.324Z,5.10
2018-01-23T09:53:59.775Z,5.10
2018-01-23T09:56:27.234Z,5.20
2018-01-23T09:58:54.692Z,5.30
2018-01-23T10:01:22.150Z,5.40
2018-01-23T10:03:49.593Z,5.50
2018-01-23T10:06:17.046Z,5.60
2018-01-23T10:08:44.509Z,5.70
2018-01-23T10:11:11.972Z,5.70
2018-01-23T10:13:39.432Z,5.80
2018-01-23T10:16:06.900Z,5.80
2018-01-23T10:18:34.347Z,5.90
2018-01-23T10:21:01.807Z,6.00
2018-01-23T10:23:30.039Z,6.10
2018-01-23T10:25:57.487Z,6.00
2018-01-23T10:28:24.978Z,6.10
2018-01-23T10:30:52.426Z,6.20
2018-01-23T10:33:19.900Z,6.20
2018-01-23T10:35:48.106Z,6.20
2018-01-23T10:38:15.575Z,6.20
2018-01-23T10:40:43.811Z,6.20
2018-01-23T10:43:11.299Z,6.30
2018-01-23T10:45:38.742Z,6.30
2018-01-23T10:48:06.233Z,6.30
2018-01-23T10:50:33.700Z,6.30
2018-01-23T10:53:01.906Z,6.40
2018-01-23T10:55:29.376Z,6.30
2018-01-23T10:57:56.844Z,6.40
2018-01-23T11:00:24.576Z,6.40
2018-01-23T11:02:52.058Z,6.50
2018-01-23T11:05:19.512Z,6.50
2018-01-23T11:07:46.959Z,6.40
2018-01-23T11:10:14.432Z,6.50
2018-01-23T11:12:41.889Z,6.50
2018-01-23T11:15:10.118Z,6.60
2018-01-23T11:17:37.577Z,6.60
2018-01-23T11:20:05.047Z,6.60
2018-01-23T11:22:32.512Z,6.70
2018-01-23T11:24:59.964Z,6.60
2018-01-23T11:27:27.428Z,6.70
2018-01-23T11:29:54.897Z,6.70
2018-01-23T11:32:22.370Z,6.70
2018-01-23T11:34:49.791Z,6.70
2018-01-23T11:37:17.352Z,6.70
2018-01-23T11:39:44.813Z,6.70
2018-01-23T11:42:12.285Z,6.80
2018-01-23T11:44:39.742Z,6.80
2018-01-23T11:47:07.226Z,6.80
2018-01-23T11:49:34.684Z,6.90
2018-01-23T11:52:02.124Z,6.90
2018-01-23T11:54:29.605Z,6.90
2018-01-23T11:56:57.859Z,6.90
2018-01-23T11:59:25.331Z,6.90
2018-01-23T12:01:52.783Z,6.90
2018-01-23T12:04:20.230Z,7.00
2018-01-23T12:06:47.682Z,7.00
2018-01-23T12:09:15.137Z,7.10
2018-01-23T12:11:42.608Z,7.10
2018-01-23T12:14:10.057Z,7.20
2018-01-23T12:16:37.501Z,7.20
2018-01-23T12:19:04.963Z,7.20
2018-01-23T12:21:32.431Z,7.20
2018-01-23T12:24:00.010Z,7.30
2018-01-23T12:26:27.450Z,7.30
2018-01-23T12:28:54.879Z,7.40
2018-01-23T12:31:22.382Z,7.50
2018-01-23T12:33:50.658Z,7.80
2018-01-23T12:36:18.904Z,7.90
2018-01-23T12:38:46.358Z,7.80
2018-01-23T12:41:13.831Z,7.90
2018-01-23T12:43:41.289Z,7.90
2018-01-23T12:46:08.766Z,7.90
2018-01-23T12:48:36.206Z,7.90
2018-01-23T12:51:03.647Z,7.90
2018-01-23T12:53:32.623Z,7.90
2018-01-23T12:56:00.110Z,7.90
2018-01-23T12:58:27.562Z,7.90
2018-01-23T13:00:55.032Z,8.00
2018-01-23T13:03:22.488Z,8.00
2018-01-23T13:05:50.318Z,8.00
2018-01-23T13:08:17.779Z,8.00
2018-01-23T13:10:45.237Z,8.10
2018-01-23T13:13:12.773Z,8.10
2018-01-23T13:15:40.236Z,8.10
2018-01-23T13:18:07.686Z,8.10
2018-01-23T13:20:35.127Z,8.10
2018-01-23T13:23:03.540Z,8.00
2018-01-23T13:25:30.981Z,8.00
2018-01-23T13:27:58.468Z,7.90
2018-01-23T13:30:25.952Z,7.90
2018-01-23T13:32:54.167Z,7.80
2018-01-23T13:35:21.690Z,7.80
2018-01-23T13:37:49.134Z,7.70
2018-01-23T13:40:16.581Z,7.70
2018-01-23T13:42:44.021Z,7.70
2018-01-23T13:45:11.482Z,7.60
2018-01-23T13:47:38.954Z,7.60
2018-01-23T13:50:06.400Z,7.50
2018-01-23T13:52:33.881Z,7.50
2018-01-23T13:55:02.112Z,7.50
2018-01-23T13:57:29.591Z,7.40
2018-01-23T13:59:57.038Z,7.40
2018-01-23T14:02:24.483Z,7.40
2018-01-23T14:04:51.957Z,7.40
2018-01-23T14:07:19.413Z,7.30
2018-01-23T14:09:46.851Z,7.30
2018-01-23T14:12:14.336Z,7.30
2018-01-23T14:14:41.776Z,7.30
2018-01-23T14:17:09.239Z,7.30
2018-01-23T14:19:36.702Z,7.30
2018-01-23T14:22:04.170Z,7.30
2018-01-23T14:24:31.643Z,7.30
2018-01-23T14:26:59.091Z,7.30
2018-01-23T14:29:26.534Z,7.30
2018-01-23T14:31:53.993Z,7.30
2018-01-23T14:34:21.462Z,7.30
2018-01-23T14:36:48.914Z,7.20
2018-01-23T14:39:17.157Z,7.20
2018-01-23T14:41:44.640Z,7.20
2018-01-23T14:44:12.097Z,7.20
2018-01-23T14:46:40.547Z,7.20
2018-01-23T14:49:07.994Z,7.20
2018-01-23T14:51:35.437Z,7.20
2018-01-23T14:54:02.897Z,7.20
2018-01-23T14:56:30.365Z,7.10
2018-01-23T14:58:57.851Z,7.10
2018-01-23T15:01:25.350Z,7.10
2018-01-23T15:03:52.790Z,7.10
2018-01-23T15:06:20.263Z,7.10
2018-01-23T15:08:47.746Z,7.10
2018-01-23T15:11:15.194Z,7.10
2018-01-23T15:13:42.784Z,7.10
2018-01-23T15:16:10.262Z,7.10
2018-01-23T15:18:38.635Z,7.10
2018-01-23T15:21:06.089Z,7.00
2018-01-23T15:23:33.539Z,7.10
2018-01-23T15:26:00.999Z,7.00
2018-01-23T15:28:28.557Z,7.00
2018-01-23T15:30:56.013Z,7.00
2018-01-23T15:33:23.471Z,7.00
2018-01-23T15:35:51.501Z,7.00
2018-01-23T15:38:18.954Z,7.00
2018-01-23T15:40:46.402Z,6.90
2018-01-23T15:43:13.885Z,6.90
2018-01-23T15:45:41.332Z,6.90
2018-01-23T15:48:08.774Z,6.90
2018-01-23T15:50:36.243Z,6.80
2018-01-23T15:53:03.698Z,6.80
2018-01-23T15:55:31.167Z,6.80
2018-01-23T15:57:58.623Z,6.80
2018-01-23T16:00:26.128Z,6.80
2018-01-23T16:02:53.534Z,6.70
2018-01-23T16:05:21.095Z,6.70
2018-01-23T16:07:48.537Z,6.70
2018-01-23T16:10:16.014Z,6.70
2018-01-23T16:12:43.445Z,6.70
2018-01-23T16:15:10.929Z,6.70
2018-01-23T16:17:38.354Z,6.70
2018-01-23T16:20:05.824Z,6.70
2018-01-23T16:22:33.277Z,6.70
2018-01-23T16:25:00.738Z,6.70
2018-01-23T16:27:28.194Z,6.70
2018-01-23T16:29:55.661Z,6.70
2018-01-23T16:32:23.317Z,6.70
2018-01-23T16:34:50.747Z,6.70
2018-01-23T16:37:18.228Z,6.70
2018-01-23T16:39:45.703Z,6.70
2018-01-23T16:42:13.144Z,6.70
2018-01-23T16:44:40.606Z,6.70
2018-01-23T16:47:08.069Z,6.70
2018-01-23T16:49:35.510Z,6.70
2018-01-23T16:52:02.966Z,6.70
2018-01-23T16:54:30.434Z,6.70
2018-01-23T16:56:57.870Z,6.70
2018-01-23T16:59:25.372Z,6.60
2018-01-23T17:01:52.826Z,6.60
2018-01-23T17:04:20.262Z,6.60
2018-01-23T17:06:47.728Z,6.60
2018-01-23T17:09:15.164Z,6.60
2018-01-23T17:11:43.422Z,6.60
2018-01-23T17:14:10.872Z,6.60
2018-01-23T17:16:39.078Z,6.50
2018-01-23T17:19:06.540Z,6.50
2018-01-23T17:21:33.979Z,6.60
2018-01-23T17:24:01.440Z,6.60
2018-01-23T17:26:28.902Z,6.50
2018-01-23T17:28:56.339Z,6.60
2018-01-23T17:31:23.798Z,6.60
2018-01-23T17:33:51.282Z,6.60
2018-01-23T17:36:18.729Z,6.60
2018-01-23T17:38:46.203Z,6.60
2018-01-23T17:41:13.665Z,6.60
2018-01-23T17:43:41.102Z,6.60
2018-01-23T17:46:08.581Z,6.60
2018-01-23T17:48:36.046Z,6.50
2018-01-23T17:51:03.514Z,6.50
2018-01-23T17:53:30.992Z,6.50
2018-01-23T17:55:58.435Z,6.50
2018-01-23T17:58:25.874Z,6.40
2018-01-23T18:00:54.146Z,6.40
2018-01-23T18:03:21.595Z,6.40
2018-01-23T18:05:49.040Z,6.40
2018-01-23T18:08:16.526Z,6.40
2018-01-23T18:10:43.963Z,6.30
2018-01-23T18:13:12.307Z,6.30
2018-01-23T18:15:39.747Z,6.30
2018-01-23T18:18:07.204Z,6.20
2018-01-23T18:20:34.675Z,6.20
2018-01-23T18:23:02.116Z,6.20
2018-01-23T18:25:30.348Z,6.20
2018-01-23T18:27:57.829Z,6.10
2018-01-23T18:30:26.213Z,6.10
2018-01-23T18:32:53.684Z,6.20
2018-01-23T18:35:22.501Z,6.10
2018-01-23T18:37:49.979Z,6.10
2018-01-23T18:40:17.439Z,6.10
2018-01-23T18:42:45.504Z,6.10
2018-01-23T18:45:12.971Z,6.10
2018-01-23T18:47:41.183Z,6.10
2018-01-23T18:50:08.656Z,6.00
2018-01-23T18:52:36.137Z,6.10
2018-01-23T18:55:03.621Z,6.10
2018-01-23T18:57:31.143Z,6.10
2018-01-23T18:59:58.603Z,6.00
2018-01-23T19:02:26.095Z,6.00
2018-01-23T19:04:53.542Z,6.00
2018-01-23T19:07:21.812Z,6.00
2018-01-23T19:09:50.476Z,6.00
2018-01-23T19:12:17.936Z,6.00
2018-01-23T19:14:46.406Z,6.00
2018-01-23T19:17:14.806Z,6.00
2018-01-23T19:19:43.024Z,6.00
2018-01-23T19:22:11.152Z,6.00
2018-01-23T19:24:42.451Z,6.00
2018-01-23T19:27:10.367Z,6.00
2018-01-23T19:29:39.465Z,6.00
2018-01-23T19:32:08.289Z,6.00
2018-01-23T19:34:36.182Z,6.00
2018-01-23T19:37:05.910Z,6.00
2018-01-23T19:39:33.455Z,6.00
2018-01-23T19:42:01.696Z,6.00
2018-01-23T19:44:29.172Z,6.00
2018-01-23T19:46:57.432Z,6.00
2018-01-23T19:49:25.483Z,6.00
2018-01-23T19:51:53.448Z,6.00
2018-01-23T19:54:20.943Z,6.00
2018-01-23T19:56:48.406Z,6.00
2018-01-23T19:59:16.085Z,6.00
2018-01-23T20:01:44.325Z,6.00
2018-01-23T20:04:12.012Z,6.00
2018-01-23T20:06:39.466Z,6.00
2018-01-23T20:09:08.623Z,6.00
2018-01-23T20:11:38.107Z,6.00
2018-01-23T20:14:06.296Z,6.00
2018-01-23T20:16:33.746Z,6.00
2018-01-23T20:19:02.016Z,6.10
2018-01-23T20:21:31.885Z,6.00
2018-01-23T20:23:59.504Z,6.10
2018-01-23T20:26:27.682Z,6.10
2018-01-23T20:28:59.199Z,6.10
2018-01-23T20:31:28.141Z,6.10
2018-01-23T20:33:55.624Z,6.10
2018-01-23T20:36:23.552Z,6.10
2018-01-23T20:38:52.219Z,6.10
2018-01-23T20:41:19.719Z,6.10
2018-01-23T20:43:47.174Z,6.10
2018-01-23T20:46:14.710Z,6.10
2018-01-23T20:48:42.191Z,6.10
2018-01-23T20:51:10.205Z,6.10
2018-01-23T20:53:37.699Z,6.20
2018-01-23T20:56:05.466Z,6.20
2018-01-23T20:58:32.956Z,6.20
2018-01-23T21:01:00.424Z,6.20
2018-01-23T21:03:28.683Z,6.20
2018-01-23T21:05:56.920Z,6.20
2018-01-23T21:08:25.639Z,6.20
2018-01-23T21:10:53.115Z,6.20
2018-01-23T21:13:22.348Z,6.30
2018-01-23T21:15:49.831Z,6.30
2018-01-23T21:18:18.162Z,6.30
2018-01-23T21:20:46.388Z,6.30
2018-01-23T21:23:15.173Z,6.40
2018-01-23T21:25:42.627Z,6.30
2018-01-23T21:28:10.083Z,6.30
2018-01-23T21:30:38.384Z,6.40
2018-01-23T21:33:06.738Z,6.40
2018-01-23T21:35:34.208Z,6.40
2018-01-23T21:38:01.683Z,6.40
2018-01-23T21:40:29.121Z,6.40
2018-01-23T21:42:56.579Z,6.50
2018-01-23T21:45:24.410Z,6.50
2018-01-23T21:47:51.884Z,6.50
2018-01-23T21:50:19.321Z,6.50
2018-01-23T21:52:47.703Z,6.50
2018-01-23T21:55:15.126Z,6.60
2018-01-23T21:57:43.386Z,6.60
2018-01-23T22:00:10.827Z,6.60
2018-01-23T22:02:38.307Z,6.60
2018-01-23T22:05:06.534Z,6.70
2018-01-23T22:07:33.979Z,6.70
2018-01-23T22:10:01.439Z,6.70
2018-01-23T22:12:28.912Z,6.70
2018-01-23T22:14:56.374Z,6.70
2018-01-23T22:17:23.858Z,6.70
2018-01-23T22:19:51.287Z,6.80
2018-01-23T22:22:18.746Z,6.80
2018-01-23T22:24:46.215Z,6.80
2018-01-23T22:27:13.687Z,6.80
2018-01-23T22:29:41.931Z,6.80
2018-01-23T22:32:09.373Z,6.80
2018-01-23T22:34:37.571Z,6.80
2018-01-23T22:37:05.022Z,6.90
2018-01-23T22:39:32.474Z,6.90
2018-01-23T22:41:59.931Z,6.90
2018-01-23T22:44:27.426Z,6.90
2018-01-23T22:46:54.930Z,6.90
2018-01-23T22:49:22.387Z,6.90
2018-01-23T22:51:49.915Z,6.90
2018-01-23T22:54:19.492Z,7.00
2018-01-23T22:56:46.954Z,6.90
2018-01-23T22:59:14.426Z,7.00
2018-01-23T23:01:42.651Z,7.00
2018-01-23T23:04:10.115Z,7.00
2018-01-23T23:06:37.562Z,7.10
2018-01-23T23:09:05.019Z,7.10
2018-01-23T23:11:32.462Z,7.10
2018-01-23T23:13:59.953Z,7.10
2018-01-23T23:16:27.378Z,7.10
2018-01-23T23:18:54.851Z,7.10
2018-01-23T23:21:22.326Z,7.20
2018-01-23T23:23:49.874Z,7.20
2018-01-23T23:26:17.326Z,7.20
2018-01-23T23:28:44.795Z,7.20
2018-01-23T23:31:12.258Z,7.20
2018-01-23T23:33:39.730Z,7.30
2018-01-23T23:36:07.187Z,7.40
2018-01-23T23:38:34.631Z,7.40
2018-01-23T23:41:02.087Z,7.40
2018-01-23T23:43:29.554Z,7.40
2018-01-23T23:45:57.023Z,7.40
2018-01-23T23:48:24.469Z,7.40
2018-01-23T23:50:51.912Z,7.40
2018-01-23T23:53:19.379Z,7.50
2018-01-23T23:55:46.831Z,7.50
2018-01-23T23:58:14.307Z,7.60
